Time;durP1;ratioP1;P1;durP2;ratioP2;P2;SDS_P1;SDS_P2;PMS_P1;PMS_P2;Temp;Humidity;BMP_temperature;BMP_pressure;BME280_temperature;BME280_humidity;BME280_pressure;Samples;Min_cycle;Max_cycle;Signal;HPM_P1;HPM_P2
2021/04/22 00:02:16;;;;;;;4.45;4.05;;;;;;;7.65;81.59;98771.80;1722122;82;21325;-59
2021/04/22 00:04:43;;;;;;;4.75;4.15;;;;;;;7.64;81.71;98764.87;1734572;81;21553;-57
2021/04/22 00:07:12;;;;;;;4.72;4.33;;;;;;;7.63;81.86;98765.85;1764836;80;21081;-57
2021/04/22 00:09:40;;;;;;;4.85;4.45;;;;;;;7.62;81.95;98770.80;1778273;80;21503;-58
2021/04/22 00:12:09;;;;;;;5.42;4.40;;;;;;;7.59;82.08;98766.67;1752798;80;21013;-61
2021/04/22 00:14:36;;;;;;;5.10;4.70;;;;;;;7.58;82.21;98768.17;1762913;79;21251;-58
2021/04/22 00:17:07;;;;;;;5.30;4.90;;;;;;;7.55;82.34;98769.34;1709508;82;20963;-59
2021/04/22 00:19:36;;;;;;;4.80;4.40;;;;;;;7.54;82.51;98773.46;1731525;81;21180;-61
2021/04/22 00:22:04;;;;;;;5.28;4.80;;;;;;;7.51;82.67;98764.56;1781638;79;20925;-60
2021/04/22 00:24:31;;;;;;;5.35;4.92;;;;;;;7.51;82.82;98765.88;1772191;79;20966;-60
2021/04/22 00:26:59;;;;;;;5.10;4.70;;;;;;;7.51;82.94;98763.23;1779443;79;21360;-58
2021/04/22 00:29:26;;;;;;;5.80;5.30;;;;;;;7.50;83.05;98759.76;1798300;79;21128;-61
2021/04/22 00:31:55;;;;;;;6.05;5.55;;;;;;;7.51;83.11;98764.56;1783563;79;21180;-58
2021/04/22 00:34:22;;;;;;;5.83;5.33;;;;;;;7.50;83.13;98766.37;1793741;79;21175;-59
2021/04/22 00:36:50;;;;;;;7.75;5.78;;;;;;;7.51;83.18;98770.66;1791175;79;21037;-58
2021/04/22 00:39:17;;;;;;;6.70;6.10;;;;;;;7.51;83.21;98764.03;1712794;82;21351;-58
2021/04/22 00:41:45;;;;;;;5.05;4.60;;;;;;;7.52;83.23;98766.19;1785837;79;21013;-59
2021/04/22 00:44:12;;;;;;;6.47;5.53;;;;;;;7.54;83.25;98765.52;1768092;79;21209;-59
2021/04/22 00:46:40;;;;;;;5.35;4.85;;;;;;;7.55;83.25;98756.59;1753400;79;21093;-58
2021/04/22 00:49:07;;;;;;;5.00;4.60;;;;;;;7.57;83.21;98759.89;1761554;80;21125;-58
2021/04/22 00:51:35;;;;;;;5.50;5.10;;;;;;;7.58;83.14;98764.20;1778332;79;21264;-59
2021/04/22 00:54:03;;;;;;;6.30;5.70;;;;;;;7.59;83.04;98762.70;1718560;82;21100;-58
2021/04/22 00:56:30;;;;;;;6.20;5.60;;;;;;;7.60;82.95;98762.21;1744557;80;21092;-58
2021/04/22 00:58:58;;;;;;;6.72;5.72;;;;;;;7.60;82.90;98764.37;1749961;80;21316;-60
2021/04/22 01:01:25;;;;;;;6.60;6.00;;;;;;;7.62;82.82;98762.86;1711252;83;21172;-58
2021/04/22 01:03:53;;;;;;;6.60;6.00;;;;;;;7.63;82.78;98770.66;1698609;82;21394;-58
2021/04/22 01:06:22;;;;;;;6.17;5.60;;;;;;;7.66;82.73;98772.97;1719261;82;21575;-58
2021/04/22 01:08:49;;;;;;;6.10;5.47;;;;;;;7.68;82.62;98774.11;1722670;81;21105;-60
2021/04/22 01:11:17;;;;;;;5.75;5.25;;;;;;;7.69;82.56;98774.45;1739889;81;21051;-58
2021/04/22 01:13:44;;;;;;;5.87;5.37;;;;;;;7.70;82.42;98775.59;1729982;82;21075;-58
2021/04/22 01:16:12;;;;;;;6.30;5.80;;;;;;;7.70;82.33;98772.95;1747775;82;22138;-58
2021/04/22 01:18:40;;;;;;;6.75;6.10;;;;;;;7.70;82.24;98768.97;1790368;79;21130;-58
2021/04/22 01:21:24;;;;;;;6.05;5.47;;;;;;;7.70;82.20;98774.77;1740365;82;21128;-59
2021/04/22 01:23:55;;;;;;;6.10;5.42;;;;;;;7.69;82.20;98773.13;1735742;81;21574;-58
2021/04/22 01:26:24;;;;;;;6.00;5.45;;;;;;;7.68;82.24;98774.11;1759718;80;21123;-58
2021/04/22 01:28:52;;;;;;;6.35;5.50;;;;;;;7.66;82.25;98763.70;1755067;81;21260;-57
2021/04/22 01:31:19;;;;;;;6.60;5.40;;;;;;;7.65;82.23;98765.17;1757318;81;21561;-58
2021/04/22 01:33:47;;;;;;;6.17;5.62;;;;;;;7.63;82.30;98769.33;1761560;81;20991;-58
2021/04/22 01:36:16;;;;;;;6.12;5.62;;;;;;;7.60;82.41;98763.53;1739662;79;21004;-58
2021/04/22 01:38:43;;;;;;;6.75;5.83;;;;;;;7.59;82.52;98765.84;1739199;81;21119;-58
2021/04/22 01:41:11;;;;;;;5.60;5.10;;;;;;;7.57;82.60;98773.13;1739125;79;21391;-58
2021/04/22 01:43:40;;;;;;;6.72;6.12;;;;;;;7.55;82.67;98764.05;1739196;81;21130;-58
2021/04/22 01:46:07;;;;;;;6.05;5.55;;;;;;;7.54;82.74;98770.81;1739264;80;21021;-58
2021/04/22 01:48:35;;;;;;;5.58;5.10;;;;;;;7.53;82.82;98770.50;1756609;81;21316;-58
2021/04/22 01:51:04;;;;;;;6.20;5.70;;;;;;;7.50;82.92;98767.70;1768987;80;21060;-59
2021/04/22 01:53:33;;;;;;;6.67;5.97;;;;;;;7.50;83.00;98768.19;1754039;81;22379;-58
2021/04/22 01:56:00;;;;;;;6.10;5.53;;;;;;;7.48;83.04;98763.88;1738672;81;20964;-58
2021/04/22 01:58:28;;;;;;;6.15;5.55;;;;;;;7.48;83.07;98767.05;1736461;81;20955;-57
2021/04/22 02:00:57;;;;;;;5.78;5.28;;;;;;;7.46;83.04;98764.55;1735570;79;21114;-58
2021/04/22 02:03:27;;;;;;;7.47;6.62;;;;;;;7.44;83.05;98766.55;1728355;79;21196;-57
2021/04/22 02:05:55;;;;;;;6.50;5.90;;;;;;;7.41;83.05;98773.48;1749247;79;21351;-57
2021/04/22 02:08:23;;;;;;;6.15;5.65;;;;;;;7.38;83.05;98771.17;1776196;79;21204;-56
2021/04/22 02:10:50;;;;;;;6.22;5.67;;;;;;;7.36;83.12;98765.72;1761421;80;20977;-57
2021/04/22 02:13:20;;;;;;;6.30;5.80;;;;;;;7.34;83.20;98770.36;1783970;79;21073;-57
2021/04/22 02:15:49;;;;;;;6.65;6.05;;;;;;;7.32;83.30;98771.03;1719354;82;21164;-60
2021/04/22 02:18:17;;;;;;;5.65;5.25;;;;;;;7.31;83.36;98772.84;1759315;80;21180;-60
2021/04/22 02:20:46;;;;;;;6.72;6.22;;;;;;;7.29;83.43;98781.45;1717828;82;20918;-59
2021/04/22 02:23:17;;;;;;;6.08;5.58;;;;;;;7.28;83.48;98780.27;1773893;80;21591;-57
2021/04/22 02:25:44;;;;;;;6.90;6.20;;;;;;;7.24;83.56;98775.83;1749183;79;21073;-59
2021/04/22 02:28:12;;;;;;;6.92;6.22;;;;;;;7.23;83.65;98782.59;1752599;79;21137;-58
2021/04/22 02:30:41;;;;;;;6.95;6.30;;;;;;;7.21;83.75;98781.45;1767700;80;21452;-57
2021/04/22 02:33:11;;;;;;;6.45;5.95;;;;;;;7.20;83.83;98777.62;1749182;79;21025;-57
2021/04/22 02:35:41;;;;;;;7.00;6.25;;;;;;;7.19;83.94;98773.34;1758159;79;21540;-59
2021/04/22 02:38:10;;;;;;;7.00;6.33;;;;;;;7.18;84.02;98775.16;1751171;80;21129;-57
2021/04/22 02:40:39;;;;;;;6.42;5.67;;;;;;;7.19;84.11;98778.15;1783971;79;21555;-60
2021/04/22 02:43:10;;;;;;;6.42;5.92;;;;;;;7.20;84.13;98778.45;1784104;79;22164;-58
2021/04/22 02:45:43;;;;;;;7.20;5.95;;;;;;;7.21;84.15;98776.65;1783942;79;21183;-60
2021/04/22 02:48:12;;;;;;;7.47;6.78;;;;;;;7.21;84.14;98778.80;1741126;81;20898;-57
2021/04/22 02:50:47;;;;;;;6.67;6.03;;;;;;;7.20;84.15;98782.91;1752343;80;21019;-57
2021/04/22 02:53:14;;;;;;;6.50;5.62;;;;;;;7.19;84.15;98784.77;1784058;79;21184;-59
2021/04/22 02:55:44;;;;;;;6.37;5.78;;;;;;;7.18;84.18;98787.06;1784119;79;22307;-58
2021/04/22 02:58:14;;;;;;;6.90;5.78;;;;;;;7.18;84.18;98791.52;1811665;78;21065;-58
2021/04/22 03:00:45;;;;;;;6.28;5.78;;;;;;;7.18;84.14;98792.36;1804733;78;21065;-58
2021/04/22 03:03:13;;;;;;;6.00;5.50;;;;;;;7.16;84.14;98796.98;1784471;79;20922;-57
2021/04/22 03:05:42;;;;;;;6.42;5.90;;;;;;;7.17;84.10;98799.15;1783938;79;21148;-57
2021/04/22 03:08:09;;;;;;;6.22;5.72;;;;;;;7.15;84.09;98794.49;1735174;81;21375;-57
2021/04/22 03:10:37;;;;;;;7.03;6.33;;;;;;;7.14;84.09;98792.38;1768872;81;21027;-58
2021/04/22 03:13:06;;;;;;;6.78;6.08;;;;;;;7.13;84.13;98793.84;1727692;80;21166;-57
2021/04/22 03:15:35;;;;;;;6.40;5.90;;;;;;;7.13;84.19;98791.19;1819056;78;21085;-58
2021/04/22 03:18:07;;;;;;;5.70;5.20;;;;;;;7.14;84.20;98792.86;1799692;77;21096;-59
2021/04/22 03:20:34;;;;;;;5.65;5.22;;;;;;;7.15;84.19;98794.49;1794475;77;21189;-58
2021/04/22 03:23:02;;;;;;;6.85;5.60;;;;;;;7.17;84.20;98801.27;1745523;80;21136;-57
2021/04/22 03:25:31;;;;;;;6.03;5.47;;;;;;;7.18;84.17;98795.00;1806050;78;21131;-57
2021/04/22 03:27:58;;;;;;;5.90;5.30;;;;;;;7.19;84.10;98799.31;1744721;80;21167;-59
2021/04/22 03:30:31;;;;;;;6.83;6.10;;;;;;;7.19;84.03;98803.28;1757784;80;21113;-58
2021/04/22 03:32:58;;;;;;;6.12;5.62;;;;;;;7.19;83.98;98791.87;1806811;77;22290;-59
2021/04/22 03:35:26;;;;;;;6.90;6.30;;;;;;;7.19;83.93;98792.70;1788445;78;21188;-60
2021/04/22 03:37:54;;;;;;;7.22;6.60;;;;;;;7.20;83.92;98800.95;1807474;78;21120;-57
2021/04/22 03:40:24;;;;;;;7.05;6.30;;;;;;;7.20;83.85;98795.66;1730191;81;22499;-57
2021/04/22 03:42:52;;;;;;;5.53;5.12;;;;;;;7.22;83.88;98798.16;1752030;81;20978;-58
2021/04/22 03:45:20;;;;;;;6.35;5.75;;;;;;;7.28;83.85;98811.53;1753415;79;22104;-57
2021/04/22 03:47:47;;;;;;;5.20;4.80;;;;;;;7.35;83.75;98811.19;1729659;80;21635;-60
2021/04/22 03:50:17;;;;;;;5.53;4.92;;;;;;;7.46;83.43;98808.22;1749418;81;21157;-58
2021/04/22 03:52:44;;;;;;;5.67;5.25;;;;;;;7.58;83.00;98803.91;1753479;81;21099;-59
2021/04/22 03:55:14;;;;;;;6.12;5.53;;;;;;;7.67;82.69;98809.02;1756815;80;21054;-60
2021/04/22 03:57:41;;;;;;;5.33;4.83;;;;;;;7.83;82.28;98808.16;1785923;79;21350;-59
2021/04/22 04:00:12;;;;;;;5.05;4.60;;;;;;;7.99;81.75;98809.45;1802228;78;21140;-57
2021/04/22 04:02:40;;;;;;;6.37;4.90;;;;;;;8.18;81.16;98804.26;1730638;82;21238;-60
2021/04/22 04:05:09;;;;;;;5.53;5.03;;;;;;;8.35;80.43;98804.05;1750830;79;21199;-57
2021/04/22 04:07:36;;;;;;;5.50;5.00;;;;;;;8.51;79.79;98806.63;1790609;79;21164;-58
2021/04/22 04:10:06;;;;;;;4.65;4.35;;;;;;;8.68;79.08;98808.19;1736984;82;21392;-58
2021/04/22 04:12:34;;;;;;;5.53;5.03;;;;;;;8.85;78.51;98804.95;1753794;80;20963;-57
2021/04/22 04:15:03;;;;;;;4.65;4.25;;;;;;;9.06;77.82;98810.94;1780332;78;20968;-57
2021/04/22 04:17:30;;;;;;;5.37;4.87;;;;;;;9.26;77.05;98804.14;1793840;79;21148;-57
2021/04/22 04:19:58;;;;;;;4.85;4.45;;;;;;;9.47;76.27;98814.09;1735794;82;21120;-57
2021/04/22 04:22:28;;;;;;;4.78;4.37;;;;;;;9.67;75.50;98808.62;1748699;81;21373;-58
2021/04/22 04:24:55;;;;;;;4.65;4.25;;;;;;;9.87;74.72;98805.75;1745010;81;21034;-60
2021/04/22 04:27:23;;;;;;;5.00;4.60;;;;;;;10.10;74.00;98810.98;1722360;82;21137;-58
2021/04/22 04:29:54;;;;;;;4.70;4.30;;;;;;;10.35;73.12;98817.72;1794781;79;21488;-58
2021/04/22 04:32:20;;;;;;;4.42;4.08;;;;;;;10.55;72.31;98816.12;1805443;79;21146;-58
2021/04/22 04:34:49;;;;;;;4.00;3.70;;;;;;;10.76;71.48;98813.52;1782975;79;21344;-58
2021/04/22 04:37:17;;;;;;;4.10;3.80;;;;;;;10.94;70.69;98811.27;1793771;79;21138;-60
2021/04/22 04:39:44;;;;;;;5.28;4.20;;;;;;;11.02;69.84;98817.80;1782257;79;21172;-58
2021/04/22 04:42:12;;;;;;;6.67;4.05;;;;;;;10.99;69.36;98812.85;1774536;79;21047;-62
2021/04/22 04:44:39;;;;;;;4.78;4.37;;;;;;;10.90;69.35;98820.63;1791679;79;21173;-60
2021/04/22 04:47:07;;;;;;;9.83;4.22;;;;;;;10.77;69.38;98815.65;1771911;79;23539;-58
2021/04/22 04:49:34;;;;;;;4.95;4.50;;;;;;;10.69;69.65;98823.23;1791798;79;21063;-58
2021/04/22 04:52:02;;;;;;;4.80;4.40;;;;;;;10.63;69.88;98821.84;1803098;79;21108;-57
2021/04/22 04:54:29;;;;;;;4.65;4.28;;;;;;;10.58;69.97;98825.07;1779084;79;21106;-58
2021/04/22 04:56:57;;;;;;;4.47;4.12;;;;;;;10.52;70.10;98825.80;1777532;79;21181;-60
2021/04/22 04:59:25;;;;;;;4.80;4.40;;;;;;;10.51;70.38;98824.14;1732550;82;21546;-58
2021/04/22 05:01:53;;;;;;;5.30;4.80;;;;;;;10.56;70.41;98826.27;1797211;79;20926;-59
2021/04/22 05:04:20;;;;;;;4.78;4.37;;;;;;;10.65;70.29;98823.80;1807730;78;21125;-58
2021/04/22 05:06:48;;;;;;;5.08;4.67;;;;;;;10.77;70.07;98824.96;1732557;82;21219;-57
2021/04/22 05:09:15;;;;;;;5.62;4.25;;;;;;;10.86;69.75;98816.70;1757881;79;21539;-60
2021/04/22 05:11:44;;;;;;;4.62;4.25;;;;;;;10.96;69.60;98823.87;1739086;81;21403;-61
2021/04/22 05:14:12;;;;;;;4.12;3.80;;;;;;;11.17;69.41;98821.73;1761723;80;21147;-57
2021/04/22 05:16:39;;;;;;;4.40;4.00;;;;;;;11.43;68.93;98818.48;1751023;81;21186;-63
2021/04/22 05:19:10;;;;;;;4.87;4.47;;;;;;;11.74;68.37;98822.98;1743384;79;21132;-61
2021/04/22 05:21:37;;;;;;;4.72;4.33;;;;;;;12.06;67.59;98814.91;1740690;81;21166;-57
2021/04/22 05:24:06;;;;;;;4.83;4.37;;;;;;;12.37;66.69;98814.79;1739058;81;21941;-60
2021/04/22 05:26:34;;;;;;;4.80;4.40;;;;;;;12.68;65.52;98822.31;1739401;81;21153;-59
2021/04/22 05:29:02;;;;;;;4.55;4.00;;;;;;;12.97;64.98;98818.00;1738871;80;21175;-57
2021/04/22 05:31:29;;;;;;;4.58;4.20;;;;;;;13.30;64.13;98810.08;1746332;81;21162;-57
2021/04/22 05:33:57;;;;;;;4.87;4.47;;;;;;;13.60;63.14;98799.33;1743471;80;21553;-60
2021/04/22 05:36:25;;;;;;;5.50;4.47;;;;;;;13.74;62.05;98802.80;1758306;81;21377;-58
2021/04/22 05:38:53;;;;;;;4.45;4.05;;;;;;;13.68;61.62;98796.13;1763503;79;21028;-61
2021/04/22 05:41:20;;;;;;;4.92;4.47;;;;;;;13.56;61.48;98794.58;1756620;81;21007;-60
2021/04/22 05:43:49;;;;;;;5.05;4.60;;;;;;;13.36;61.73;98793.75;1735075;80;21151;-59
2021/04/22 05:46:16;;;;;;;5.53;4.45;;;;;;;13.19;62.22;98791.97;1709237;80;21163;-59
2021/04/22 05:48:46;;;;;;;5.17;4.62;;;;;;;13.07;62.56;98808.29;1716336;80;21208;-60
2021/04/22 05:51:15;;;;;;;4.67;4.25;;;;;;;12.92;62.88;98812.45;1741271;81;21066;-59
2021/04/22 05:53:44;;;;;;;6.05;4.45;;;;;;;12.77;63.43;98813.13;1738561;80;21171;-60
2021/04/22 05:56:11;;;;;;;5.70;5.00;;;;;;;12.69;63.90;98816.47;1739083;81;21091;-59
2021/04/22 05:58:38;;;;;;;6.53;5.12;;;;;;;12.63;64.02;98814.59;1747194;79;21150;-60
2021/04/22 06:01:07;;;;;;;5.45;5.00;;;;;;;12.54;64.12;98826.47;1765298;81;21199;-58
2021/04/22 06:03:35;;;;;;;5.22;4.83;;;;;;;12.48;64.32;98821.91;1759541;79;21486;-60
2021/04/22 06:06:04;;;;;;;6.28;5.78;;;;;;;12.52;65.01;98831.98;1768046;81;20973;-55
2021/04/22 06:08:32;;;;;;;5.28;4.87;;;;;;;12.67;64.71;98823.86;1762918;79;21137;-56
2021/04/22 06:10:59;;;;;;;4.97;4.58;;;;;;;12.95;65.60;98820.06;1777769;80;21620;-60
2021/04/22 06:13:26;;;;;;;4.83;4.42;;;;;;;13.33;64.22;98823.03;1757028;80;21333;-58
2021/04/22 06:15:54;;;;;;;5.70;5.20;;;;;;;13.72;63.31;98818.22;1759144;80;21157;-58
2021/04/22 06:18:21;;;;;;;5.55;5.05;;;;;;;14.16;62.04;98821.05;1729189;81;21106;-60
2021/04/22 06:20:49;;;;;;;4.72;4.42;;;;;;;14.62;60.98;98818.30;1755815;81;21146;-60
2021/04/22 06:23:18;;;;;;;4.90;4.50;;;;;;;15.06;59.79;98817.97;1734810;81;21156;-59
2021/04/22 06:25:46;;;;;;;4.47;4.08;;;;;;;15.43;58.44;98819.81;1733644;81;22025;-59
2021/04/22 06:28:15;;;;;;;5.30;4.80;;;;;;;15.68;57.32;98811.28;1762579;80;21170;-58
2021/04/22 06:30:42;;;;;;;5.00;4.58;;;;;;;15.87;56.14;98814.84;1752597;81;21791;-57
2021/04/22 06:33:10;;;;;;;5.75;4.45;;;;;;;16.03;55.06;98809.72;1756911;81;21118;-62
2021/04/22 06:35:40;;;;;;;5.22;4.72;;;;;;;16.17;54.16;98811.76;1758272;80;21133;-62
2021/04/22 06:38:08;;;;;;;5.42;4.92;;;;;;;16.30;53.80;98812.14;1765948;79;21363;-59
2021/04/22 06:40:36;;;;;;;4.83;4.42;;;;;;;16.49;53.09;98805.74;1778793;80;21207;-58
2021/04/22 06:43:05;;;;;;;5.30;4.80;;;;;;;16.68;52.72;98797.19;1777930;80;20961;-58
2021/04/22 06:45:35;;;;;;;5.58;5.10;;;;;;;16.92;52.25;98799.74;1770424;78;20938;-59
2021/04/22 06:48:08;;;;;;;5.62;5.17;;;;;;;17.19;51.21;98788.94;1744228;81;21098;-58
2021/04/22 06:50:36;;;;;;;5.53;5.03;;;;;;;17.42;50.36;98795.41;1771645;79;21337;-58
2021/04/22 06:53:04;;;;;;;5.87;4.83;;;;;;;17.61;49.97;98784.39;1774060;80;21138;-58
2021/04/22 06:55:31;;;;;;;6.10;5.50;;;;;;;17.87;49.63;98790.67;1776006;79;21144;-57
2021/04/22 06:57:59;;;;;;;5.65;4.85;;;;;;;18.09;48.76;98796.82;1760043;80;21719;-58
2021/04/22 07:00:31;;;;;;;5.25;4.75;;;;;;;18.27;48.21;98799.38;1757447;80;21715;-60
2021/04/22 07:02:59;;;;;;;5.62;5.03;;;;;;;18.47;47.75;98791.24;1757505;79;21376;-60
2021/04/22 07:05:27;;;;;;;5.92;5.33;;;;;;;18.62;47.01;98796.64;1766332;80;21020;-59
2021/04/22 07:07:54;;;;;;;6.05;5.58;;;;;;;18.51;46.43;98788.87;1757355;80;21127;-60
2021/04/22 07:10:22;;;;;;;6.12;5.53;;;;;;;18.41;46.51;98792.15;1730693;82;21597;-61
2021/04/22 07:12:49;;;;;;;6.55;5.90;;;;;;;18.39;46.93;98784.84;1738187;82;21119;-58
2021/04/22 07:15:17;;;;;;;5.78;5.28;;;;;;;18.49;46.86;98793.16;1778182;79;23669;-61
2021/04/22 07:17:49;;;;;;;6.20;5.40;;;;;;;18.76;45.99;98793.45;1787217;78;21124;-58
2021/04/22 07:20:20;;;;;;;6.00;5.55;;;;;;;18.76;45.99;98793.45;1799247;78;21012;-59
2021/04/22 07:22:50;;;;;;;6.65;6.15;;;;;;;18.92;45.75;98788.66;1783879;79;21586;-59
2021/04/22 07:25:17;;;;;;;6.20;5.70;;;;;;;19.10;45.39;98790.33;1777486;79;21120;-58
2021/04/22 07:27:45;;;;;;;5.92;5.53;;;;;;;19.14;45.44;98787.98;1774419;79;21201;-59
2021/04/22 07:30:14;;;;;;;7.53;5.80;;;;;;;19.09;45.49;98785.47;1774127;79;21065;-59
2021/04/22 07:32:42;;;;;;;6.35;5.80;;;;;;;19.03;45.50;98791.02;1786198;78;21155;-58
2021/04/22 07:35:10;;;;;;;6.28;5.78;;;;;;;18.79;45.30;98795.67;1712375;82;21166;-58
2021/04/22 07:37:39;;;;;;;7.97;6.42;;;;;;;18.79;45.30;98795.67;1738326;81;21118;-61
2021/04/22 07:40:08;;;;;;;6.72;6.12;;;;;;;18.72;45.61;98791.48;1770625;79;21272;-60
2021/04/22 07:42:35;;;;;;;6.35;5.83;;;;;;;18.78;45.26;98799.94;1748425;81;21209;-60
2021/04/22 07:45:05;;;;;;;6.12;5.53;;;;;;;18.78;45.26;98799.94;1738690;80;21139;-60
2021/04/22 07:47:32;;;;;;;6.15;5.65;;;;;;;18.89;45.56;98789.13;1741685;79;21141;-58
2021/04/22 07:49:59;;;;;;;7.40;5.87;;;;;;;19.13;45.21;98799.81;1768596;81;21131;-59
2021/04/22 07:52:27;;;;;;;6.22;5.53;;;;;;;19.30;44.77;98805.53;1759475;79;21189;-58
2021/04/22 07:54:54;;;;;;;6.55;5.95;;;;;;;19.49;44.17;98804.81;1749689;79;21099;-60
2021/04/22 07:57:21;;;;;;;6.28;5.65;;;;;;;19.61;43.52;98803.68;1737859;80;21193;-58
2021/04/22 07:59:49;;;;;;;7.00;5.70;;;;;;;19.70;43.44;98806.27;1752564;79;21093;-58
2021/04/22 08:02:21;;;;;;;6.30;5.80;;;;;;;19.81;43.36;98803.73;1748936;79;21178;-59
2021/04/22 08:04:48;;;;;;;6.50;5.90;;;;;;;19.91;43.08;98802.55;1737205;80;21390;-59
2021/04/22 08:07:16;;;;;;;6.33;5.83;;;;;;;20.00;42.86;98807.80;1740449;79;20965;-59
2021/04/22 08:09:50;;;;;;;5.97;5.50;;;;;;;20.12;42.45;98802.61;1751134;80;21594;-59
2021/04/22 08:12:17;;;;;;;6.10;5.40;;;;;;;20.26;42.14;98801.73;1760709;78;21186;-58
2021/04/22 08:14:45;;;;;;;6.65;6.00;;;;;;;20.38;42.10;98802.47;1755871;80;21104;-60
2021/04/22 08:17:16;;;;;;;6.83;6.30;;;;;;;20.47;41.81;98802.83;1774431;80;21339;-60
2021/04/22 08:19:44;;;;;;;6.37;5.78;;;;;;;20.56;41.18;98799.47;1759123;78;21147;-59
2021/04/22 08:22:12;;;;;;;5.78;5.37;;;;;;;20.58;41.22;98802.73;1756717;80;21008;-60
2021/04/22 08:24:39;;;;;;;6.25;5.62;;;;;;;20.66;41.09;98795.53;1774461;78;21079;-59
2021/04/22 08:27:07;;;;;;;7.92;5.78;;;;;;;20.75;41.09;98802.12;1782661;80;21103;-59
2021/04/22 08:29:37;;;;;;;6.50;6.00;;;;;;;20.87;40.77;98805.53;1774729;80;23128;-62
2021/04/22 08:32:05;;;;;;;6.53;5.95;;;;;;;20.97;40.00;98801.30;1776125;78;21469;-60
2021/04/22 08:34:33;;;;;;;6.90;6.30;;;;;;;20.98;39.87;98799.70;1774853;80;21391;-59
2021/04/22 08:37:00;;;;;;;6.62;6.12;;;;;;;20.93;39.96;98794.24;1776664;79;21161;-59
2021/04/22 08:39:28;;;;;;;6.72;6.15;;;;;;;20.88;40.28;98796.33;1780028;78;20997;-60
2021/04/22 08:41:55;;;;;;;7.37;6.78;;;;;;;20.88;39.85;98794.98;1754944;80;23615;-59
2021/04/22 08:44:23;;;;;;;6.72;6.22;;;;;;;20.86;39.88;98794.95;1758276;80;21080;-60
2021/04/22 08:46:50;;;;;;;8.05;6.10;;;;;;;20.83;40.34;98788.72;1759250;80;21148;-60
2021/04/22 08:49:18;;;;;;;7.65;6.95;;;;;;;20.75;40.31;98798.06;1753729;80;21189;-60
2021/04/22 08:51:47;;;;;;;7.65;6.85;;;;;;;20.72;39.96;98786.96;1758918;80;21117;-61
2021/04/22 08:54:15;;;;;;;7.00;6.40;;;;;;;20.71;40.22;98796.95;1754624;80;21389;-58
2021/04/22 08:56:44;;;;;;;6.50;5.92;;;;;;;20.78;40.32;98784.58;1763090;81;21110;-58
2021/04/22 08:59:12;;;;;;;6.05;5.65;;;;;;;20.93;40.14;98786.12;1762430;79;21229;-59
2021/04/22 09:01:42;;;;;;;7.60;6.28;;;;;;;21.06;40.14;98783.56;1778419;80;21134;-59
2021/04/22 09:04:12;;;;;;;6.95;6.25;;;;;;;21.18;39.86;98781.02;1755131;80;21021;-59
2021/04/22 09:06:39;;;;;;;6.40;5.90;;;;;;;21.35;39.41;98768.75;1762561;78;21357;-59
2021/04/22 09:09:07;;;;;;;7.53;6.40;;;;;;;21.47;39.27;98770.73;1769331;79;21141;-59
2021/04/22 09:11:47;;;;;;;6.55;5.90;;;;;;;21.56;38.67;98764.33;1768685;81;21657;-58
2021/04/22 09:14:17;;;;;;;6.40;5.90;;;;;;;21.69;37.97;98764.69;1748265;81;21577;-61
2021/04/22 09:16:47;;;;;;;6.08;5.65;;;;;;;21.79;37.16;98766.67;1762964;80;21505;-60
2021/04/22 09:19:22;;;;;;;5.60;5.10;;;;;;;21.81;36.21;98759.10;1799030;78;21370;-61
2021/04/22 09:21:55;;;;;;;6.35;5.85;;;;;;;21.82;36.22;98754.77;1692382;82;21828;-60
2021/04/22 09:24:26;;;;;;;6.12;5.55;;;;;;;21.97;36.33;98746.80;1800538;77;21073;-58
2021/04/22 09:27:02;;;;;;;6.05;5.55;;;;;;;21.90;36.10;98746.20;1797642;77;21187;-59
2021/04/22 09:29:36;;;;;;;6.53;5.90;;;;;;;21.64;36.27;98739.50;1791018;79;21124;-59
2021/04/22 09:32:16;;;;;;;5.95;5.28;;;;;;;21.39;36.81;98744.15;1733827;80;22287;-61
2021/04/22 09:35:00;;;;;;;6.22;5.62;;;;;;;21.30;37.03;98737.59;1785492;78;21490;-61
2021/04/22 09:37:39;;;;;;;6.72;5.05;;;;;;;21.21;36.98;98725.59;1737267;82;21149;-59
2021/04/22 09:40:30;;;;;;;5.62;5.22;;;;;;;21.09;37.44;98720.89;1782402;77;21124;-59
2021/04/22 09:43:01;;;;;;;5.33;4.85;;;;;;;21.04;37.54;98712.70;1787748;78;20994;-58
2021/04/22 09:45:30;;;;;;;5.50;4.90;;;;;;;21.03;37.29;98707.00;1718612;82;21377;-58
2021/04/22 09:47:59;;;;;;;5.25;4.85;;;;;;;20.86;37.64;98716.03;1805182;78;21188;-59
2021/04/22 09:50:29;;;;;;;5.30;4.80;;;;;;;20.78;37.61;98718.36;1734207;81;21132;-60
2021/04/22 09:52:58;;;;;;;5.40;4.90;;;;;;;20.69;37.13;98706.38;1737820;82;21098;-62
2021/04/22 09:55:29;;;;;;;5.90;5.03;;;;;;;20.60;37.13;98703.31;1760535;80;21489;-59
2021/04/22 09:57:57;;;;;;;5.55;5.03;;;;;;;20.53;37.23;98695.94;1781986;79;21353;-60
2021/04/22 10:00:31;;;;;;;5.20;4.70;;;;;;;20.47;37.36;98686.66;1767533;79;20958;-61
2021/04/22 10:05:44;;;;;;;5.55;4.67;;;;;;;20.10;37.86;98691.31;1836577;78;22391;-59
2021/04/22 10:08:15;;;;;;;8.98;4.80;;;;;;;19.76;38.33;98686.27;1801897;79;20897;-58
2021/04/22 10:11:03;;;;;;;4.47;4.10;;;;;;;19.25;39.44;98673.31;1777253;79;20984;-59
2021/04/22 10:13:49;;;;;;;6.72;4.92;;;;;;;19.25;39.44;98673.31;1753818;79;21020;-59
2021/04/22 10:16:18;;;;;;;6.08;5.58;;;;;;;18.89;40.08;98679.17;1760597;79;20941;-58
2021/04/22 10:18:45;;;;;;;5.42;4.67;;;;;;;18.41;41.04;98680.92;1790683;79;21020;-60
2021/04/22 10:21:13;;;;;;;6.12;5.55;;;;;;;18.08;42.70;98692.90;1770883;79;21057;-59
2021/04/22 10:23:41;;;;;;;6.25;5.67;;;;;;;17.77;44.65;98682.83;1806472;79;21361;-62
2021/04/22 10:26:19;;;;;;;6.40;5.90;;;;;;;17.41;46.32;98692.97;1774326;79;20949;-63
2021/04/22 10:28:47;;;;;;;9.38;6.00;;;;;;;17.00;48.04;98712.63;1758551;79;20992;-59
2021/04/22 10:31:14;;;;;;;6.58;5.97;;;;;;;16.64;51.84;98726.47;1758195;79;20972;-59
2021/04/22 10:33:42;;;;;;;6.37;5.87;;;;;;;16.32;53.54;98728.22;1788536;79;20921;-59
2021/04/22 10:36:12;;;;;;;6.37;5.67;;;;;;;15.89;54.31;98725.08;1758229;79;21694;-59
2021/04/22 10:38:40;;;;;;;5.53;4.97;;;;;;;15.47;54.92;98741.14;1766016;79;20970;-60
2021/04/22 10:41:08;;;;;;;5.95;5.12;;;;;;;15.08;56.03;98750.27;1805300;79;21598;-59
2021/04/22 10:43:36;;;;;;;5.70;5.08;;;;;;;14.68;57.18;98746.48;1767198;79;21581;-63
2021/04/22 10:46:03;;;;;;;7.80;6.47;;;;;;;14.54;59.29;98750.79;1778368;79;21108;-59
2021/04/22 10:48:31;;;;;;;7.58;6.60;;;;;;;14.47;60.76;98756.16;1773162;79;21204;-59
2021/04/22 10:50:59;;;;;;;10.05;9.05;;;;;;;14.38;60.69;98756.61;1787135;79;20996;-59
2021/04/22 10:53:26;;;;;;;12.13;11.00;;;;;;;14.26;61.93;98756.41;1766379;79;21561;-59
2021/04/22 10:55:56;;;;;;;12.03;10.93;;;;;;;14.20;62.56;98758.09;1731371;79;21132;-59
2021/04/22 10:58:29;;;;;;;10.72;9.83;;;;;;;14.19;63.27;98754.27;1765330;79;21001;-60
2021/04/22 11:01:00;;;;;;;9.43;8.63;;;;;;;14.22;64.18;98758.70;1776651;79;22343;-61
2021/04/22 11:03:39;;;;;;;8.03;7.40;;;;;;;14.24;64.41;98753.95;1785552;79;21110;-60
2021/04/22 11:06:14;;;;;;;9.08;8.38;;;;;;;14.26;64.03;98764.97;1797409;79;20936;-59
2021/04/22 11:08:52;;;;;;;8.78;8.08;;;;;;;14.30;64.06;98775.55;1780351;79;21632;-60
2021/04/22 11:11:32;;;;;;;7.80;7.20;;;;;;;14.37;64.35;98775.86;1797446;79;20955;-63
2021/04/22 11:14:11;;;;;;;7.72;7.03;;;;;;;14.43;63.70;98772.34;1780369;79;21451;-61
2021/04/22 11:16:42;;;;;;;6.83;6.10;;;;;;;14.45;64.07;98775.63;1779782;79;21112;-61
2021/04/22 11:19:18;;;;;;;6.30;5.80;;;;;;;14.52;63.68;98761.69;1779738;79;20994;-59
2021/04/22 11:21:52;;;;;;;5.35;4.95;;;;;;;14.58;62.54;98760.84;1801623;79;20992;-61
2021/04/22 11:24:31;;;;;;;5.78;5.28;;;;;;;14.70;62.32;98764.48;1790523;79;21055;-59
2021/04/22 11:27:14;;;;;;;6.10;4.35;;;;;;;14.86;61.67;98757.02;1779715;79;21514;-61
2021/04/22 11:29:47;;;;;;;3.90;3.60;;;;;;;14.91;61.12;98766.05;1801075;79;21052;-59
2021/04/22 11:32:34;;;;;;;4.10;3.80;;;;;;;15.01;60.42;98773.61;1779800;79;21519;-60
2021/04/22 11:35:10;;;;;;;3.92;3.58;;;;;;;15.08;58.80;98755.11;1781125;79;21722;-58
2021/04/22 11:37:43;;;;;;;4.10;3.80;;;;;;;15.17;58.26;98758.36;1789396;79;21147;-59
2021/04/22 11:40:25;;;;;;;4.55;4.25;;;;;;;15.28;57.86;98754.45;1779302;79;22283;-59
2021/04/22 11:42:54;;;;;;;3.15;2.95;;;;;;;15.42;57.80;98753.32;1779655;79;21084;-61
2021/04/22 11:45:25;;;;;;;3.40;3.10;;;;;;;15.54;56.84;98753.44;1782342;79;20922;-59
2021/04/22 11:48:03;;;;;;;4.42;4.03;;;;;;;15.59;56.77;98748.79;1792993;79;20959;-60
2021/04/22 11:50:50;;;;;;;3.80;3.50;;;;;;;15.59;56.25;98746.91;1802207;79;21192;-59